createdAt,value
2023-05-20T00:01:50.961Z,8.13
2023-05-20T00:04:18.459Z,8.35
2023-05-20T00:06:45.993Z,7.35
2023-05-20T00:09:13.260Z,8.07
2023-05-20T00:11:40.817Z,7.63
2023-05-20T00:14:08.387Z,7.25
2023-05-20T00:16:38.068Z,7.18
2023-05-20T00:19:05.451Z,7.10
2023-05-20T00:21:33.954Z,7.32
2023-05-20T00:24:01.859Z,7.40
2023-05-20T00:26:29.652Z,6.57
2023-05-20T00:28:58.167Z,7.22
2023-05-20T00:31:25.572Z,7.43
2023-05-20T00:33:52.979Z,7.47
2023-05-20T00:36:20.212Z,7.30
2023-05-20T00:38:48.723Z,7.80
2023-05-20T00:41:17.038Z,7.47
2023-05-20T00:43:44.203Z,7.85
2023-05-20T00:46:11.513Z,8.20
2023-05-20T00:48:41.802Z,7.45
2023-05-20T00:51:10.444Z,8.20
2023-05-20T00:53:38.539Z,7.05
2023-05-20T00:56:06.436Z,7.93
2023-05-20T00:58:36.741Z,7.68
2023-05-20T01:01:06.225Z,7.10
2023-05-20T01:03:33.780Z,6.95
2023-05-20T01:06:01.293Z,6.50
2023-05-20T01:08:29.070Z,6.78
2023-05-20T01:11:06.550Z,6.43
2023-05-20T01:13:50.767Z,7.10
2023-05-20T01:16:18.662Z,6.63
2023-05-20T01:18:48.806Z,6.63
2023-05-20T01:21:17.447Z,6.70
2023-05-20T01:23:45.207Z,6.97
2023-05-20T01:26:15.282Z,6.38
2023-05-20T01:28:46.072Z,6.90
2023-05-20T01:31:19.146Z,7.13
2023-05-20T01:33:52.150Z,6.72
2023-05-20T01:36:21.661Z,7.50
2023-05-20T01:38:51.060Z,6.32
2023-05-20T01:41:19.127Z,6.45
2023-05-20T01:43:46.875Z,6.10
2023-05-20T01:46:15.859Z,6.10
2023-05-20T01:48:43.230Z,6.15
2023-05-20T01:51:10.312Z,5.97
2023-05-20T01:53:37.996Z,5.07
2023-05-20T01:56:06.228Z,6.05
2023-05-20T01:58:33.928Z,6.15
2023-05-20T02:01:01.778Z,6.13
2023-05-20T02:03:29.408Z,6.95
2023-05-20T02:05:56.551Z,6.45
2023-05-20T02:08:24.177Z,6.30
2023-05-20T02:10:51.455Z,5.88
2023-05-20T02:13:18.892Z,5.85
2023-05-20T02:15:45.942Z,5.90
2023-05-20T02:18:14.239Z,6.35
2023-05-20T02:20:42.752Z,5.65
2023-05-20T02:23:10.172Z,5.55
2023-05-20T02:25:37.154Z,5.60
2023-05-20T02:28:06.052Z,6.18
2023-05-20T02:30:33.132Z,5.65
2023-05-20T02:33:00.739Z,6.07
2023-05-20T02:35:27.849Z,5.10
2023-05-20T02:37:55.567Z,5.63
2023-05-20T02:40:23.042Z,5.43
2023-05-20T02:42:50.818Z,5.80
2023-05-20T02:45:17.954Z,6.20
2023-05-20T02:47:46.450Z,5.45
2023-05-20T02:50:13.427Z,5.53
2023-05-20T02:52:42.753Z,5.20
2023-05-20T02:55:10.144Z,5.70
2023-05-20T02:57:38.529Z,5.22
2023-05-20T03:00:11.836Z,5.20
2023-05-20T03:02:39.856Z,5.60
2023-05-20T03:05:08.226Z,5.03
2023-05-20T03:07:36.715Z,4.72
2023-05-20T03:10:07.206Z,5.95
2023-05-20T03:12:34.596Z,4.90
2023-05-20T03:15:01.590Z,5.57
2023-05-20T03:17:29.436Z,5.35
2023-05-20T03:19:57.281Z,5.22
2023-05-20T03:22:25.461Z,4.60
2023-05-20T03:24:53.161Z,4.93
2023-05-20T03:27:21.491Z,5.30
2023-05-20T03:29:48.925Z,5.32
2023-05-20T03:32:16.942Z,4.68
2023-05-20T03:34:44.289Z,5.50
2023-05-20T03:37:11.739Z,5.15
2023-05-20T03:39:39.582Z,5.03
2023-05-20T03:42:07.887Z,4.85
2023-05-20T03:44:35.404Z,4.88
2023-05-20T03:47:03.658Z,4.82
2023-05-20T03:49:31.955Z,5.20
2023-05-20T03:51:59.626Z,5.10
2023-05-20T03:54:26.717Z,5.07
2023-05-20T03:56:55.103Z,4.75
2023-05-20T03:59:22.442Z,4.90
2023-05-20T04:01:49.774Z,5.63
2023-05-20T04:04:17.592Z,5.00
2023-05-20T04:06:45.120Z,4.78
2023-05-20T04:09:12.104Z,4.45
2023-05-20T04:11:39.412Z,4.60
2023-05-20T04:14:06.939Z,4.20
2023-05-20T04:16:34.399Z,5.13
2023-05-20T04:19:02.795Z,5.05
2023-05-20T04:21:31.722Z,4.45
2023-05-20T04:23:59.097Z,4.40
2023-05-20T04:26:26.452Z,4.57
2023-05-20T04:28:54.000Z,5.38
2023-05-20T04:31:27.011Z,3.88
2023-05-20T04:33:54.683Z,4.40
2023-05-20T04:36:28.622Z,5.05
2023-05-20T04:38:57.298Z,4.63
2023-05-20T04:41:24.958Z,4.47
2023-05-20T04:43:52.108Z,4.18
2023-05-20T04:46:20.573Z,5.10
2023-05-20T04:48:48.129Z,4.38
2023-05-20T04:51:16.303Z,4.35
2023-05-20T04:53:46.038Z,3.78
2023-05-20T04:56:15.373Z,4.25
2023-05-20T04:58:43.212Z,3.85
2023-05-20T05:01:10.988Z,3.78
2023-05-20T05:03:37.931Z,3.70
2023-05-20T05:06:05.179Z,4.13
2023-05-20T05:08:32.363Z,3.88
2023-05-20T05:11:00.032Z,4.22
2023-05-20T05:13:27.181Z,4.18
2023-05-20T05:16:02.481Z,3.70
2023-05-20T05:18:31.724Z,4.32
2023-05-20T05:21:04.134Z,4.00
2023-05-20T05:23:32.985Z,4.05
2023-05-20T05:26:00.590Z,4.25
2023-05-20T05:28:27.979Z,4.18
2023-05-20T05:30:59.036Z,3.80
2023-05-20T05:33:26.899Z,3.90
2023-05-20T05:35:54.750Z,3.65
2023-05-20T05:38:21.980Z,3.78
2023-05-20T05:40:49.220Z,3.47
2023-05-20T05:43:17.381Z,3.38
2023-05-20T05:45:47.536Z,3.60
2023-05-20T05:48:15.200Z,3.50
2023-05-20T05:50:47.028Z,3.97
2023-05-20T05:53:16.417Z,3.22
2023-05-20T05:55:47.421Z,3.30
2023-05-20T05:58:15.773Z,3.50
2023-05-20T06:00:43.534Z,3.65
2023-05-20T06:03:11.311Z,3.67
2023-05-20T06:05:38.722Z,3.92
2023-05-20T06:08:06.125Z,3.45
2023-05-20T06:10:35.373Z,3.40
2023-05-20T06:13:03.023Z,3.60
2023-05-20T06:15:31.325Z,4.32
2023-05-20T06:17:58.737Z,3.72
2023-05-20T06:20:27.212Z,4.07
2023-05-20T06:22:54.966Z,3.60
2023-05-20T06:25:25.265Z,3.55
2023-05-20T06:27:52.228Z,3.65
2023-05-20T06:30:21.049Z,3.80
2023-05-20T06:32:48.573Z,3.78
2023-05-20T06:35:17.148Z,3.70
2023-05-20T06:37:44.107Z,3.72
2023-05-20T06:40:12.542Z,4.15
2023-05-20T06:42:39.708Z,3.90
2023-05-20T06:45:08.002Z,3.17
2023-05-20T06:47:50.424Z,3.50
2023-05-20T06:50:18.062Z,3.60
2023-05-20T06:52:44.959Z,4.10
2023-05-20T06:55:13.146Z,3.35
2023-05-20T06:57:40.846Z,3.70
2023-05-20T07:00:09.574Z,3.83
2023-05-20T07:02:42.281Z,3.70
2023-05-20T07:05:11.400Z,4.00
2023-05-20T07:07:38.540Z,4.03
2023-05-20T07:10:07.072Z,3.47
2023-05-20T07:12:36.640Z,3.90
2023-05-20T07:15:06.629Z,4.30
2023-05-20T07:17:34.751Z,3.55
2023-05-20T07:20:04.639Z,4.30
2023-05-20T07:22:34.070Z,4.30
2023-05-20T07:25:28.528Z,4.10
2023-05-20T07:27:56.765Z,4.35
2023-05-20T07:30:24.651Z,5.20
2023-05-20T07:33:13.134Z,4.60
2023-05-20T07:35:49.289Z,11.55
2023-05-20T07:38:25.258Z,3.75
2023-05-20T07:40:58.373Z,8.67
2023-05-20T07:43:25.762Z,3.90
2023-05-20T07:45:53.050Z,4.35
2023-05-20T07:48:20.935Z,3.63
2023-05-20T07:50:48.891Z,3.70
2023-05-20T07:53:17.383Z,4.35
2023-05-20T07:55:45.647Z,4.20
2023-05-20T07:58:14.551Z,3.47
2023-05-20T08:00:41.971Z,3.85
2023-05-20T08:03:09.490Z,3.42
2023-05-20T08:05:54.849Z,3.85
2023-05-20T08:08:22.189Z,3.72
2023-05-20T08:11:01.775Z,3.33
2023-05-20T08:13:31.234Z,3.60
2023-05-20T08:16:00.783Z,3.53
2023-05-20T08:18:27.756Z,3.38
2023-05-20T08:20:55.263Z,3.85
2023-05-20T08:23:22.144Z,3.83
2023-05-20T08:25:50.767Z,3.78
2023-05-20T08:28:19.822Z,3.60
2023-05-20T08:30:48.845Z,3.25
2023-05-20T08:33:16.233Z,3.60
2023-05-20T08:35:43.871Z,3.35
2023-05-20T08:38:11.022Z,3.63
2023-05-20T08:40:38.394Z,3.97
2023-05-20T08:43:05.567Z,4.13
2023-05-20T08:45:34.525Z,3.50
2023-05-20T08:48:06.656Z,3.72
2023-05-20T08:50:34.088Z,3.78
2023-05-20T08:53:01.382Z,4.25
2023-05-20T08:55:42.833Z,3.67
2023-05-20T08:58:10.526Z,3.65
2023-05-20T09:00:38.538Z,3.47
2023-05-20T09:03:05.677Z,4.55
2023-05-20T09:05:34.994Z,3.67
2023-05-20T09:08:10.604Z,3.97
2023-05-20T09:10:45.213Z,3.70
2023-05-20T09:13:12.256Z,4.22
2023-05-20T09:15:40.521Z,3.90
2023-05-20T09:18:09.525Z,4.05
2023-05-20T09:20:38.068Z,3.38
2023-05-20T09:23:07.512Z,4.28
2023-05-20T09:25:37.527Z,3.65
2023-05-20T09:28:07.502Z,4.55
2023-05-20T09:30:35.175Z,4.10
2023-05-20T09:33:05.048Z,4.10
2023-05-20T09:35:37.718Z,4.38
2023-05-20T09:38:08.275Z,4.40
2023-05-20T09:40:38.929Z,4.37
2023-05-20T09:43:07.845Z,4.18
2023-05-20T09:45:35.657Z,4.28
2023-05-20T09:48:04.318Z,4.45
2023-05-20T09:50:32.175Z,4.60
2023-05-20T09:53:05.279Z,4.60
2023-05-20T09:55:33.321Z,4.70
2023-05-20T09:58:03.517Z,4.85
2023-05-20T10:00:31.652Z,5.03
2023-05-20T10:02:59.843Z,4.57
2023-05-20T10:05:38.718Z,4.88
2023-05-20T10:08:24.249Z,5.03
2023-05-20T10:11:16.031Z,4.43
2023-05-20T10:16:50.492Z,3.97
2023-05-20T10:19:31.359Z,4.20
2023-05-20T10:24:38.211Z,4.68
2023-05-20T10:27:15.510Z,4.57
2023-05-20T10:29:53.401Z,4.50
2023-05-20T10:32:28.921Z,5.00
2023-05-20T10:35:01.841Z,4.78
2023-05-20T10:37:49.407Z,4.43
2023-05-20T10:40:19.503Z,5.00
2023-05-20T10:42:48.615Z,4.53
2023-05-20T10:45:29.374Z,4.68
2023-05-20T10:48:00.172Z,4.43
2023-05-20T10:50:38.649Z,4.40
2023-05-20T10:53:08.256Z,4.90
2023-05-20T10:55:40.368Z,4.15
2023-05-20T10:58:07.985Z,4.60
2023-05-20T11:00:39.482Z,4.35
2023-05-20T11:03:07.611Z,4.50
2023-05-20T11:05:35.584Z,4.53
2023-05-20T11:08:10.712Z,5.00
2023-05-20T11:10:47.761Z,4.88
2023-05-20T11:13:15.637Z,4.40
2023-05-20T11:15:42.779Z,5.40
2023-05-20T11:18:11.679Z,5.05
2023-05-20T11:20:38.643Z,4.68
2023-05-20T11:23:06.849Z,4.82
2023-05-20T11:25:34.429Z,4.82
2023-05-20T11:28:01.922Z,4.40
2023-05-20T11:30:31.002Z,5.15
2023-05-20T11:33:03.056Z,4.53
2023-05-20T11:35:34.614Z,5.15
2023-05-20T11:38:04.947Z,4.43
2023-05-20T11:40:46.291Z,6.25
2023-05-20T11:43:18.210Z,4.95
2023-05-20T11:45:47.507Z,4.68
2023-05-20T11:48:17.381Z,4.93
2023-05-20T11:50:46.382Z,5.07
2023-05-20T11:53:18.791Z,4.68
2023-05-20T11:55:50.450Z,4.47
2023-05-20T11:58:23.301Z,4.65
2023-05-20T12:00:55.156Z,5.10
2023-05-20T12:03:27.514Z,4.32
2023-05-20T12:05:54.860Z,4.97
2023-05-20T12:08:22.815Z,4.63
2023-05-20T12:10:50.089Z,4.88
2023-05-20T12:13:18.003Z,5.22
2023-05-20T12:15:45.242Z,4.90
2023-05-20T12:18:12.696Z,5.22
2023-05-20T12:20:39.849Z,4.97
2023-05-20T12:23:07.312Z,4.78
2023-05-20T12:25:34.385Z,5.30
2023-05-20T12:28:02.528Z,5.15
2023-05-20T12:30:29.675Z,5.25
2023-05-20T12:32:57.138Z,5.13
2023-05-20T12:35:43.709Z,4.70
2023-05-20T12:38:11.930Z,4.78
2023-05-20T12:40:38.981Z,5.05
2023-05-20T12:43:07.092Z,5.28
2023-05-20T12:45:34.062Z,4.70
2023-05-20T12:48:02.166Z,4.68
2023-05-20T12:50:29.172Z,4.78
2023-05-20T12:52:56.975Z,4.75
2023-05-20T12:55:23.900Z,5.15
2023-05-20T12:57:51.407Z,4.47
2023-05-20T13:00:18.696Z,4.88
2023-05-20T13:02:46.315Z,4.68
2023-05-20T13:05:14.083Z,4.90
2023-05-20T13:07:42.447Z,4.72
2023-05-20T13:10:10.865Z,4.53
2023-05-20T13:12:38.510Z,4.43
2023-05-20T13:15:06.268Z,4.88
2023-05-20T13:17:33.667Z,4.30
2023-05-20T13:20:00.754Z,4.10
2023-05-20T13:22:28.313Z,4.50
2023-05-20T13:24:55.416Z,4.70
2023-05-20T13:27:22.750Z,4.70
2023-05-20T13:29:50.154Z,4.72
2023-05-20T13:32:17.463Z,5.38
2023-05-20T13:34:45.464Z,4.57
2023-05-20T13:37:12.737Z,4.72
2023-05-20T13:39:40.321Z,4.57
2023-05-20T13:42:07.554Z,5.13
2023-05-20T13:44:34.519Z,4.80
2023-05-20T13:47:02.175Z,5.45
2023-05-20T13:49:29.101Z,4.90
2023-05-20T13:51:56.399Z,5.63
2023-05-20T13:54:23.366Z,5.25
2023-05-20T13:56:51.682Z,5.32
2023-05-20T13:59:18.718Z,5.00
2023-05-20T14:01:46.627Z,4.60
2023-05-20T14:04:14.013Z,5.20
2023-05-20T14:06:41.570Z,5.10
2023-05-20T14:09:11.991Z,4.60
2023-05-20T14:11:39.285Z,5.68
2023-05-20T14:14:06.465Z,4.80
2023-05-20T14:16:34.170Z,4.70
2023-05-20T14:19:01.318Z,4.90
2023-05-20T14:21:28.955Z,4.82
2023-05-20T14:23:55.990Z,5.25
2023-05-20T14:26:23.640Z,4.50
2023-05-20T14:28:50.553Z,4.97
2023-05-20T14:31:17.947Z,4.55
2023-05-20T14:33:45.242Z,4.47
2023-05-20T14:36:12.798Z,4.78
2023-05-20T14:38:40.123Z,5.05
2023-05-20T14:41:07.518Z,4.57
2023-05-20T14:43:34.496Z,4.63
2023-05-20T14:46:02.793Z,4.53
2023-05-20T14:48:29.724Z,4.57
2023-05-20T14:50:57.033Z,3.90
2023-05-20T14:53:24.094Z,4.00
2023-05-20T14:55:51.876Z,3.90
2023-05-20T14:58:18.806Z,4.03
2023-05-20T15:00:46.881Z,3.67
2023-05-20T15:03:14.199Z,4.50
2023-05-20T15:05:42.557Z,3.58
2023-05-20T15:08:09.783Z,4.03
2023-05-20T15:10:37.739Z,3.28
2023-05-20T15:13:04.965Z,3.90
2023-05-20T15:15:33.653Z,3.83
2023-05-20T15:18:01.286Z,3.55
2023-05-20T15:20:28.895Z,3.40
2023-05-20T15:22:58.550Z,3.80
2023-05-20T15:25:27.083Z,3.58
2023-05-20T15:27:54.722Z,3.90
2023-05-20T15:30:22.957Z,3.50
2023-05-20T15:32:50.264Z,3.55
2023-05-20T15:35:17.657Z,3.90
2023-05-20T15:37:44.773Z,3.78
2023-05-20T15:40:12.114Z,3.90
2023-05-20T15:42:39.312Z,3.72
2023-05-20T15:45:07.417Z,4.75
2023-05-20T15:47:34.358Z,4.05
2023-05-20T15:50:05.296Z,4.50
2023-05-20T15:52:32.852Z,4.10
2023-05-20T15:55:01.761Z,3.92
2023-05-20T15:57:30.857Z,4.07
2023-05-20T15:59:58.398Z,4.22
2023-05-20T16:02:28.497Z,4.00
2023-05-20T16:07:23.453Z,4.00
2023-05-20T16:09:51.160Z,3.75
2023-05-20T16:12:18.494Z,4.10
2023-05-20T16:14:46.305Z,5.18
2023-05-20T16:17:13.351Z,4.40
2023-05-20T16:19:40.923Z,4.10
2023-05-20T16:22:09.512Z,3.95
2023-05-20T16:24:37.124Z,3.83
2023-05-20T16:27:04.588Z,4.70
2023-05-20T16:29:32.824Z,4.45
2023-05-20T16:32:00.450Z,4.10
2023-05-20T16:34:28.151Z,4.43
2023-05-20T16:36:55.703Z,3.92
2023-05-20T16:39:22.925Z,4.25
2023-05-20T16:41:50.440Z,4.50
2023-05-20T16:44:18.130Z,4.45
2023-05-20T16:46:45.666Z,4.10
2023-05-20T16:49:13.110Z,4.47
2023-05-20T16:51:40.762Z,4.32
2023-05-20T16:54:08.312Z,4.45
2023-05-20T16:56:36.724Z,4.57
2023-05-20T16:59:04.507Z,4.03
2023-05-20T17:01:31.885Z,4.40
2023-05-20T17:03:59.992Z,4.25
2023-05-20T17:06:34.366Z,4.40
2023-05-20T17:09:04.792Z,4.05
2023-05-20T17:11:31.737Z,4.28
2023-05-20T17:13:59.207Z,4.00
2023-05-20T17:16:26.572Z,4.38
2023-05-20T17:18:53.994Z,4.63
2023-05-20T17:21:21.129Z,3.90
2023-05-20T17:23:48.854Z,3.75
2023-05-20T17:26:16.291Z,4.15
2023-05-20T17:28:43.782Z,3.67
2023-05-20T17:31:10.916Z,3.72
2023-05-20T17:33:38.689Z,3.88
2023-05-20T17:36:06.217Z,4.00
2023-05-20T17:38:34.050Z,3.63
2023-05-20T17:41:01.105Z,3.60
2023-05-20T17:43:28.825Z,4.07
2023-05-20T17:45:55.857Z,4.07
2023-05-20T17:48:23.054Z,3.90
2023-05-20T17:50:50.188Z,4.57
2023-05-20T17:53:19.166Z,4.55
2023-05-20T17:55:47.750Z,4.38
2023-05-20T17:58:15.089Z,4.30
2023-05-20T18:00:42.897Z,4.15
2023-05-20T18:03:10.551Z,4.55
2023-05-20T18:05:38.156Z,4.43
2023-05-20T18:08:05.502Z,4.32
2023-05-20T18:10:33.319Z,4.50
2023-05-20T18:13:01.296Z,4.93
2023-05-20T18:15:28.437Z,4.05
2023-05-20T18:17:55.834Z,4.25
2023-05-20T18:20:23.245Z,4.50
2023-05-20T18:22:52.409Z,4.60
2023-05-20T18:25:19.628Z,3.97
2023-05-20T18:27:47.145Z,4.25
2023-05-20T18:30:14.464Z,5.18
2023-05-20T18:32:41.844Z,4.38
2023-05-20T18:35:09.270Z,4.28
2023-05-20T18:37:36.507Z,4.32
2023-05-20T18:40:05.466Z,4.88
2023-05-20T18:42:32.970Z,4.60
2023-05-20T18:44:59.961Z,4.95
2023-05-20T18:47:27.597Z,5.18
2023-05-20T18:49:55.819Z,4.50
2023-05-20T18:52:23.347Z,4.10
2023-05-20T18:54:50.673Z,5.10
2023-05-20T18:57:18.023Z,4.75
2023-05-20T18:59:45.106Z,5.28
2023-05-20T19:02:12.692Z,5.28
2023-05-20T19:04:40.462Z,5.03
2023-05-20T19:07:07.730Z,4.97
2023-05-20T19:09:34.728Z,5.30
2023-05-20T19:12:02.508Z,5.35
2023-05-20T19:14:29.474Z,4.85
2023-05-20T19:16:58.700Z,5.07
2023-05-20T19:19:26.168Z,5.13
2023-05-20T19:21:53.857Z,5.20
2023-05-20T19:24:21.164Z,5.13
2023-05-20T19:26:48.699Z,6.78
2023-05-20T19:29:15.641Z,5.10
2023-05-20T19:31:43.363Z,6.28
2023-05-20T19:34:10.342Z,4.95
2023-05-20T19:36:38.482Z,5.93
2023-05-20T19:39:05.560Z,5.63
2023-05-20T19:41:32.792Z,5.38
2023-05-20T19:43:59.932Z,5.60
2023-05-20T19:46:27.672Z,5.90
2023-05-20T19:48:54.813Z,5.53
2023-05-20T19:51:22.432Z,6.15
2023-05-20T19:53:49.678Z,5.75
2023-05-20T19:56:19.885Z,5.40
2023-05-20T19:58:47.468Z,5.63
2023-05-20T20:01:15.415Z,6.63
2023-05-20T20:03:42.968Z,6.47
2023-05-20T20:06:10.956Z,7.45
2023-05-20T20:08:39.913Z,7.07
2023-05-20T20:11:07.896Z,6.70
2023-05-20T20:13:35.642Z,5.97
2023-05-20T20:16:03.635Z,5.90
2023-05-20T20:18:32.440Z,6.80
2023-05-20T20:21:06.019Z,6.35
2023-05-20T20:23:35.143Z,6.00
2023-05-20T20:26:04.798Z,6.40
2023-05-20T20:28:31.966Z,7.25
2023-05-20T20:30:59.222Z,7.43
2023-05-20T20:33:26.171Z,6.65
2023-05-20T20:35:56.955Z,6.57
2023-05-20T20:38:24.254Z,6.82
2023-05-20T20:40:53.564Z,6.85
2023-05-20T20:43:23.055Z,7.00
2023-05-20T20:45:53.158Z,7.15
2023-05-20T20:48:26.813Z,7.43
2023-05-20T20:50:54.844Z,7.57
2023-05-20T20:53:21.878Z,7.30
2023-05-20T20:55:51.554Z,7.57
2023-05-20T20:58:19.039Z,7.60
2023-05-20T21:00:48.774Z,7.28
2023-05-20T21:03:16.063Z,7.85
2023-05-20T21:05:44.604Z,7.53
2023-05-20T21:08:13.208Z,6.97
2023-05-20T21:10:40.793Z,7.28
2023-05-20T21:13:07.865Z,7.40
2023-05-20T21:15:35.582Z,7.00
2023-05-20T21:18:02.722Z,7.85
2023-05-20T21:20:30.242Z,7.18
2023-05-20T21:22:57.184Z,6.80
2023-05-20T21:25:24.804Z,7.00
2023-05-20T21:27:51.682Z,7.25
2023-05-20T21:30:20.256Z,7.53
2023-05-20T21:32:47.371Z,7.50
2023-05-20T21:35:15.121Z,6.60
2023-05-20T21:37:42.775Z,7.32
2023-05-20T21:40:10.345Z,6.35
2023-05-20T21:42:37.829Z,6.72
2023-05-20T21:45:06.155Z,7.43
2023-05-20T21:47:33.348Z,6.80
2023-05-20T21:50:00.653Z,6.60
2023-05-20T21:52:27.876Z,6.32
2023-05-20T21:54:56.041Z,6.85
2023-05-20T21:57:23.469Z,6.63
2023-05-20T21:59:50.885Z,7.45
2023-05-20T22:02:18.065Z,7.30
2023-05-20T22:04:45.717Z,7.07
2023-05-20T22:07:12.908Z,6.15
2023-05-20T22:09:40.019Z,6.47
2023-05-20T22:12:07.888Z,6.50
2023-05-20T22:14:35.732Z,6.30
2023-05-20T22:17:03.276Z,6.05
2023-05-20T22:19:30.620Z,6.43
2023-05-20T22:21:57.635Z,5.40
2023-05-20T22:24:25.274Z,5.63
2023-05-20T22:26:52.798Z,5.75
2023-05-20T22:29:20.271Z,5.45
2023-05-20T22:31:47.659Z,5.55
2023-05-20T22:34:15.090Z,6.03
2023-05-20T22:36:42.158Z,5.93
2023-05-20T22:39:09.718Z,5.72
2023-05-20T22:41:36.886Z,6.18
2023-05-20T22:44:04.298Z,5.85
2023-05-20T22:46:32.253Z,4.93
2023-05-20T22:48:59.672Z,5.15
2023-05-20T22:51:26.931Z,5.20
2023-05-20T22:53:54.404Z,5.13
2023-05-20T22:56:21.907Z,5.40
2023-05-20T22:58:49.137Z,5.80
2023-05-20T23:01:16.952Z,5.18
2023-05-20T23:03:45.255Z,4.97
2023-05-20T23:06:12.823Z,4.75
2023-05-20T23:08:42.942Z,4.78
2023-05-20T23:11:11.322Z,4.72
2023-05-20T23:13:38.492Z,5.32
2023-05-20T23:16:06.104Z,4.90
2023-05-20T23:18:33.539Z,4.25
2023-05-20T23:21:00.691Z,5.30
2023-05-20T23:23:31.638Z,5.00
2023-05-20T23:25:59.742Z,4.78
2023-05-20T23:28:27.440Z,4.90
2023-05-20T23:30:54.947Z,4.85
2023-05-20T23:33:25.666Z,4.70
2023-05-20T23:35:53.372Z,4.45
2023-05-20T23:38:21.571Z,4.93
2023-05-20T23:40:49.374Z,5.03
2023-05-20T23:43:16.764Z,4.82
2023-05-20T23:45:43.701Z,4.97
2023-05-20T23:48:13.502Z,4.80
2023-05-20T23:50:40.962Z,5.13
2023-05-20T23:53:08.492Z,4.70
2023-05-20T23:55:36.516Z,4.85
2023-05-20T23:58:03.801Z,5.35
